createdAt,value
2022-10-05T00:01:21.988Z,22.13
2022-10-05T00:03:48.958Z,27.17
2022-10-05T00:06:15.913Z,21.13
2022-10-05T00:08:43.151Z,12.27
2022-10-05T00:11:13.598Z,10.80
2022-10-05T00:13:41.358Z,5.53
2022-10-05T00:16:17.472Z,10.60
2022-10-05T00:18:50.694Z,3.85
2022-10-05T00:21:27.251Z,6.75
2022-10-05T00:23:57.870Z,3.72
2022-10-05T00:26:26.945Z,13.27
2022-10-05T00:28:54.684Z,5.72
2022-10-05T00:31:24.613Z,3.78
2022-10-05T00:33:52.126Z,4.72
2022-10-05T00:36:19.514Z,5.82
2022-10-05T00:38:46.783Z,5.35
2022-10-05T00:41:47.232Z,5.38
2022-10-05T00:44:45.823Z,5.63
2022-10-05T00:47:31.302Z,7.32
2022-10-05T00:50:32.715Z,10.40
2022-10-05T00:53:16.139Z,21.15
2022-10-05T00:56:04.172Z,17.92
2022-10-05T00:59:14.483Z,24.10
2022-10-05T01:01:47.008Z,17.60
2022-10-05T01:04:13.652Z,21.63
2022-10-05T01:07:18.784Z,22.25
2022-10-05T01:10:06.174Z,23.27
2022-10-05T01:12:44.328Z,31.80
2022-10-05T01:15:23.989Z,25.30
2022-10-05T01:18:12.643Z,22.00
2022-10-05T01:21:02.862Z,19.75
2022-10-05T01:26:26.863Z,5.60
2022-10-05T01:29:32.039Z,7.13
2022-10-05T01:32:40.905Z,6.60
2022-10-05T01:35:36.602Z,8.30
2022-10-05T01:38:19.613Z,9.75
2022-10-05T01:41:06.503Z,13.63
2022-10-05T01:44:03.712Z,7.78
2022-10-05T01:46:39.156Z,4.70
2022-10-05T01:51:47.758Z,6.90
2022-10-05T01:54:17.117Z,5.50
2022-10-05T01:56:57.271Z,3.80
2022-10-05T02:02:16.767Z,5.97
2022-10-05T02:05:06.739Z,6.80
2022-10-05T02:07:44.288Z,6.35
2022-10-05T02:12:57.627Z,20.73
2022-10-05T02:15:35.425Z,10.73
2022-10-05T02:18:12.555Z,8.55
2022-10-05T02:20:42.577Z,4.57
2022-10-05T02:23:18.243Z,7.15
2022-10-05T02:25:47.858Z,4.85
2022-10-05T02:28:22.134Z,4.93
2022-10-05T02:31:02.299Z,4.72
2022-10-05T02:36:30.172Z,4.47
2022-10-05T02:39:29.831Z,6.07
2022-10-05T02:42:19.151Z,5.13
2022-10-05T02:44:58.601Z,5.90
2022-10-05T02:53:05.466Z,5.75
2022-10-05T02:55:43.764Z,7.95
2022-10-05T02:58:16.442Z,6.78
2022-10-05T03:00:50.909Z,9.07
2022-10-05T03:03:28.155Z,7.10
2022-10-05T03:06:04.103Z,7.07
2022-10-05T03:08:55.626Z,5.22
2022-10-05T03:11:28.501Z,6.13
2022-10-05T03:14:21.469Z,5.03
2022-10-05T03:17:19.342Z,4.43
2022-10-05T03:20:15.984Z,3.95
2022-10-05T03:22:54.772Z,5.15
2022-10-05T03:25:30.669Z,4.57
2022-10-05T03:28:13.592Z,4.00
2022-10-05T03:31:14.313Z,3.97
2022-10-05T03:33:59.503Z,3.78
2022-10-05T03:36:35.372Z,3.55
2022-10-05T03:39:30.831Z,3.95
2022-10-05T03:42:24.703Z,3.63
2022-10-05T03:45:05.772Z,4.88
2022-10-05T03:48:03.276Z,4.25
2022-10-05T03:50:42.872Z,4.68
2022-10-05T03:53:37.934Z,6.20
2022-10-05T03:56:35.168Z,4.13
2022-10-05T03:59:32.204Z,4.20
2022-10-05T04:02:02.952Z,3.47
2022-10-05T04:04:42.652Z,3.08
2022-10-05T04:07:19.862Z,4.93
2022-10-05T04:09:50.053Z,3.15
2022-10-05T04:15:18.595Z,3.30
2022-10-05T04:17:50.327Z,3.42
2022-10-05T04:20:21.874Z,4.75
2022-10-05T04:23:19.467Z,3.78
2022-10-05T04:26:02.488Z,4.63
2022-10-05T04:29:04.947Z,4.68
2022-10-05T04:31:58.466Z,6.15
2022-10-05T04:34:53.364Z,19.80
2022-10-05T04:37:31.852Z,7.38
2022-10-05T04:40:30.778Z,13.10
2022-10-05T04:43:05.550Z,3.28
2022-10-05T04:45:43.114Z,12.40
2022-10-05T04:48:23.257Z,2.78
2022-10-05T04:53:55.380Z,2.70
2022-10-05T04:56:25.119Z,4.55
2022-10-05T04:59:21.323Z,6.50
2022-10-05T05:02:12.044Z,8.30
2022-10-05T05:05:08.956Z,3.45
2022-10-05T05:07:46.980Z,3.75
2022-10-05T05:10:40.980Z,3.55
2022-10-05T05:13:30.532Z,3.95
2022-10-05T05:16:16.304Z,2.72
2022-10-05T05:19:04.818Z,3.60
2022-10-05T05:21:51.853Z,2.70
2022-10-05T05:24:30.334Z,2.58
2022-10-05T05:27:34.524Z,3.15
2022-10-05T05:30:12.760Z,4.22
2022-10-05T05:33:01.277Z,2.78
2022-10-05T05:35:46.217Z,3.10
2022-10-05T05:38:44.354Z,4.15
2022-10-05T05:41:15.030Z,3.67
2022-10-05T05:43:59.698Z,10.93
2022-10-05T05:47:02.880Z,4.53
2022-10-05T05:50:01.820Z,4.05
2022-10-05T05:52:39.112Z,4.15
2022-10-05T05:55:12.208Z,6.95
2022-10-05T05:57:44.836Z,4.15
2022-10-05T06:00:22.232Z,3.83
2022-10-05T06:02:52.095Z,2.97
2022-10-05T06:05:28.174Z,3.20
2022-10-05T06:07:58.342Z,5.07
2022-10-05T06:13:01.883Z,4.55
2022-10-05T06:16:00.201Z,3.00
2022-10-05T06:18:29.051Z,3.42
2022-10-05T06:21:16.098Z,3.90
2022-10-05T06:23:53.943Z,2.40
2022-10-05T06:26:32.957Z,2.92
2022-10-05T06:29:08.590Z,2.33
2022-10-05T06:32:06.076Z,2.45
2022-10-05T06:34:47.823Z,3.05
2022-10-05T06:37:28.408Z,2.17
2022-10-05T06:40:11.272Z,2.88
2022-10-05T06:43:05.619Z,2.20
2022-10-05T06:45:50.404Z,2.95
2022-10-05T06:48:25.562Z,1.70
2022-10-05T06:51:25.412Z,1.67
2022-10-05T06:54:19.713Z,2.67
2022-10-05T06:56:52.380Z,2.28
2022-10-05T07:00:02.648Z,2.72
2022-10-05T07:02:49.634Z,4.28
2022-10-05T07:05:51.999Z,3.40
2022-10-05T07:08:37.346Z,4.10
2022-10-05T07:11:56.559Z,3.97
2022-10-05T07:14:54.481Z,4.60
2022-10-05T07:17:34.326Z,2.40
2022-10-05T07:20:14.411Z,2.20
2022-10-05T07:25:22.983Z,4.35
2022-10-05T07:28:18.411Z,2.15
2022-10-05T07:30:58.933Z,1.70
2022-10-05T07:33:43.702Z,2.30
2022-10-05T07:36:41.789Z,3.28
2022-10-05T07:39:18.752Z,4.10
2022-10-05T07:41:53.037Z,3.63
2022-10-05T07:44:32.243Z,3.00
2022-10-05T07:47:15.575Z,2.72
2022-10-05T07:49:56.476Z,5.28
2022-10-05T07:52:36.683Z,2.70
2022-10-05T07:55:47.245Z,1.83
2022-10-05T07:58:13.967Z,2.58
2022-10-05T08:01:05.032Z,2.97
2022-10-05T08:03:45.359Z,5.88
2022-10-05T08:06:19.502Z,4.82
2022-10-05T08:08:57.573Z,1.85
2022-10-05T08:12:03.409Z,2.15
2022-10-05T08:14:43.887Z,1.73
2022-10-05T08:17:43.687Z,1.83
2022-10-05T08:20:23.282Z,3.00
2022-10-05T08:22:58.882Z,2.70
2022-10-05T08:25:38.973Z,4.30
2022-10-05T08:28:11.504Z,2.17
2022-10-05T08:30:54.233Z,2.28
2022-10-05T08:33:23.012Z,2.28
2022-10-05T08:36:03.012Z,5.88
2022-10-05T08:41:28.333Z,1.73
2022-10-05T08:44:15.043Z,5.32
2022-10-05T08:46:59.913Z,3.95
2022-10-05T08:49:46.387Z,3.97
2022-10-05T08:52:22.379Z,5.38
2022-10-05T08:55:34.133Z,5.28
2022-10-05T08:58:03.933Z,4.82
2022-10-05T09:01:06.795Z,2.92
2022-10-05T09:03:56.686Z,6.25
2022-10-05T09:06:38.643Z,5.85
2022-10-05T09:09:30.903Z,3.25
2022-10-05T09:12:41.822Z,4.43
2022-10-05T09:15:25.864Z,5.28
2022-10-05T09:18:18.952Z,4.60
2022-10-05T09:20:55.302Z,4.50
2022-10-05T09:23:34.303Z,6.68
2022-10-05T09:26:29.048Z,3.47
2022-10-05T09:29:14.265Z,5.97
2022-10-05T09:32:16.312Z,4.20
2022-10-05T09:35:01.561Z,9.10
2022-10-05T09:38:10.232Z,3.88
2022-10-05T09:40:47.841Z,7.10
2022-10-05T09:44:02.387Z,7.93
2022-10-05T09:46:44.285Z,4.45
2022-10-05T09:49:23.250Z,5.43
2022-10-05T09:51:56.507Z,2.97
2022-10-05T09:55:03.043Z,4.18
2022-10-05T09:57:41.585Z,5.63
2022-10-05T10:00:29.461Z,5.43
2022-10-05T10:03:14.996Z,3.75
2022-10-05T10:06:14.065Z,4.18
2022-10-05T10:08:55.243Z,4.13
2022-10-05T10:11:46.100Z,3.95
2022-10-05T10:14:22.638Z,3.78
2022-10-05T10:16:55.799Z,4.97
2022-10-05T10:20:00.429Z,3.85
2022-10-05T10:23:04.248Z,3.88
2022-10-05T10:26:05.358Z,5.03
2022-10-05T10:28:51.100Z,3.50
2022-10-05T10:31:37.150Z,5.93
2022-10-05T10:34:42.895Z,3.80
2022-10-05T10:37:34.764Z,4.45
2022-10-05T10:40:23.542Z,5.18
2022-10-05T10:42:56.557Z,2.53
2022-10-05T10:45:38.138Z,7.47
2022-10-05T10:48:11.586Z,3.00
2022-10-05T10:51:00.452Z,5.68
2022-10-05T10:53:53.414Z,4.97
2022-10-05T10:56:39.298Z,3.78
2022-10-05T10:59:30.848Z,4.57
2022-10-05T11:02:19.507Z,2.53
2022-10-05T11:04:55.401Z,6.18
2022-10-05T11:07:43.525Z,3.53
2022-10-05T11:10:42.991Z,3.47
2022-10-05T11:13:22.213Z,3.42
2022-10-05T11:16:19.584Z,7.78
2022-10-05T11:19:05.184Z,3.42
2022-10-05T11:21:53.224Z,4.25
2022-10-05T11:24:25.752Z,5.13
2022-10-05T11:27:08.582Z,3.13
2022-10-05T11:29:46.170Z,3.13
2022-10-05T11:32:50.412Z,2.88
2022-10-05T11:35:54.617Z,4.65
2022-10-05T11:38:36.980Z,3.10
2022-10-05T11:41:28.682Z,2.35
2022-10-05T11:44:16.885Z,4.30
2022-10-05T11:46:58.609Z,6.32
2022-10-05T11:49:40.651Z,4.22
2022-10-05T11:52:25.980Z,3.28
2022-10-05T11:55:29.589Z,4.07
2022-10-05T11:58:04.317Z,2.58
2022-10-05T12:00:45.256Z,4.57
2022-10-05T12:03:21.096Z,2.97
2022-10-05T12:06:14.931Z,2.70
2022-10-05T12:08:44.434Z,5.05
2022-10-05T12:11:46.833Z,3.60
2022-10-05T12:14:28.624Z,3.00
2022-10-05T12:17:10.583Z,6.78
2022-10-05T12:19:58.632Z,4.43
2022-10-05T12:22:33.956Z,2.50
2022-10-05T12:25:18.050Z,5.95
2022-10-05T12:27:52.556Z,9.18
2022-10-05T12:30:27.795Z,4.50
2022-10-05T12:33:15.908Z,4.20
2022-10-05T12:35:52.560Z,2.72
2022-10-05T12:38:46.925Z,4.15
2022-10-05T12:41:48.487Z,2.97
2022-10-05T12:44:33.857Z,7.72
2022-10-05T12:47:40.667Z,2.17
2022-10-05T12:50:39.688Z,3.33
2022-10-05T12:53:17.013Z,2.40
2022-10-05T12:56:24.272Z,7.45
2022-10-05T13:03:08.851Z,4.70
2022-10-05T13:06:14.924Z,5.35
2022-10-05T13:08:57.513Z,7.88
2022-10-05T13:11:35.388Z,3.90
2022-10-05T13:14:14.409Z,3.85
2022-10-05T13:17:04.318Z,2.17
2022-10-05T13:19:40.698Z,4.55
2022-10-05T13:22:22.940Z,3.38
2022-10-05T13:25:18.000Z,4.43
2022-10-05T13:27:51.104Z,3.72
2022-10-05T13:30:22.431Z,5.18
2022-10-05T13:32:57.828Z,3.50
2022-10-05T13:35:53.453Z,5.70
2022-10-05T13:38:28.713Z,3.50
2022-10-05T13:41:27.577Z,7.82
2022-10-05T13:44:13.749Z,3.53
2022-10-05T13:46:58.213Z,6.10
2022-10-05T13:49:33.264Z,3.53
2022-10-05T13:55:11.892Z,2.60
2022-10-05T13:57:51.850Z,4.35
2022-10-05T14:00:25.675Z,3.00
2022-10-05T14:02:59.809Z,6.45
2022-10-05T14:05:30.562Z,5.10
2022-10-05T14:08:16.432Z,1.80
2022-10-05T14:10:46.075Z,2.70
2022-10-05T14:13:27.495Z,8.02
2022-10-05T14:16:07.747Z,4.30
2022-10-05T14:18:37.574Z,4.25
2022-10-05T14:23:31.164Z,4.63
2022-10-05T14:25:58.023Z,5.63
2022-10-05T14:28:28.675Z,4.45
2022-10-05T14:31:16.406Z,5.05
2022-10-05T14:33:43.565Z,2.65
2022-10-05T14:36:23.649Z,5.43
2022-10-05T14:38:58.096Z,2.00
2022-10-05T14:41:27.692Z,7.18
2022-10-05T14:43:58.583Z,4.93
2022-10-05T14:46:29.231Z,6.85
2022-10-05T14:49:24.273Z,6.15
2022-10-05T14:51:52.185Z,6.72
2022-10-05T14:54:30.940Z,5.15
2022-10-05T14:57:17.137Z,5.85
2022-10-05T15:00:17.172Z,5.78
2022-10-05T15:03:12.984Z,3.95
2022-10-05T15:05:45.764Z,4.20
2022-10-05T15:08:12.407Z,6.85
2022-10-05T15:10:52.772Z,5.95
2022-10-05T15:13:23.873Z,2.90
2022-10-05T15:15:54.891Z,7.40
2022-10-05T15:18:32.227Z,5.53
2022-10-05T15:21:32.866Z,4.75
2022-10-05T15:24:09.484Z,5.30
2022-10-05T15:26:50.674Z,5.47
2022-10-05T15:29:36.327Z,5.47
2022-10-05T15:32:21.817Z,10.57
2022-10-05T15:35:28.874Z,5.97
2022-10-05T15:38:21.174Z,4.95
2022-10-05T15:41:10.312Z,6.80
2022-10-05T15:43:47.777Z,2.95
2022-10-05T15:46:43.681Z,4.35
2022-10-05T15:49:49.189Z,7.07
2022-10-05T15:52:25.844Z,3.13
2022-10-05T15:55:14.463Z,3.42
2022-10-05T15:57:56.463Z,7.78
2022-10-05T16:00:25.558Z,9.25
2022-10-05T16:02:57.732Z,6.15
2022-10-05T16:06:04.923Z,6.93
2022-10-05T16:08:53.232Z,7.18
2022-10-05T16:11:45.093Z,5.45
2022-10-05T16:14:30.401Z,4.43
2022-10-05T16:17:24.330Z,7.70
2022-10-05T16:19:53.828Z,6.15
2022-10-05T16:22:44.146Z,12.05
2022-10-05T16:25:22.397Z,9.98
2022-10-05T16:28:05.944Z,7.03
2022-10-05T16:30:50.085Z,6.90
2022-10-05T16:33:54.661Z,5.63
2022-10-05T16:36:59.883Z,4.85
2022-10-05T16:39:52.185Z,8.32
2022-10-05T16:42:35.063Z,3.55
2022-10-05T16:45:26.056Z,4.10
2022-10-05T16:48:09.194Z,6.22
2022-10-05T16:50:49.757Z,7.20
2022-10-05T16:53:44.280Z,7.38
2022-10-05T16:56:39.590Z,5.40
2022-10-05T16:59:41.361Z,5.35
2022-10-05T17:02:32.138Z,8.15
2022-10-05T17:05:18.113Z,6.65
2022-10-05T17:07:47.687Z,5.93
2022-10-05T17:10:37.193Z,5.30
2022-10-05T17:13:16.476Z,5.55
2022-10-05T17:16:04.419Z,3.50
2022-10-05T17:18:57.469Z,2.67
2022-10-05T17:22:08.942Z,2.92
2022-10-05T17:24:53.978Z,5.82
2022-10-05T17:27:35.332Z,3.45
2022-10-05T17:30:28.558Z,5.90
2022-10-05T17:32:57.433Z,4.93
2022-10-05T17:35:54.093Z,5.50
2022-10-05T17:38:35.655Z,4.60
2022-10-05T17:41:18.119Z,5.30
2022-10-05T17:44:16.562Z,7.65
2022-10-05T17:46:55.305Z,5.22
2022-10-05T17:49:40.327Z,5.47
2022-10-05T17:52:45.111Z,3.88
2022-10-05T17:55:32.373Z,3.33
2022-10-05T17:58:22.548Z,5.50
2022-10-05T18:00:58.532Z,4.00
2022-10-05T18:03:41.762Z,4.10
2022-10-05T18:06:32.147Z,5.35
2022-10-05T18:09:11.755Z,9.13
2022-10-05T18:11:41.995Z,4.03
2022-10-05T18:14:25.727Z,10.63
2022-10-05T18:17:10.402Z,4.28
2022-10-05T18:19:39.872Z,7.68
2022-10-05T18:22:28.053Z,4.82
2022-10-05T18:25:06.242Z,9.02
2022-10-05T18:27:51.022Z,8.95
2022-10-05T18:30:26.431Z,4.63
2022-10-05T18:33:23.850Z,7.55
2022-10-05T18:36:10.894Z,6.30
2022-10-05T18:38:47.600Z,5.78
2022-10-05T18:41:33.191Z,4.88
2022-10-05T18:44:06.704Z,5.35
2022-10-05T18:46:44.699Z,6.28
2022-10-05T18:49:29.898Z,6.70
2022-10-05T18:52:27.982Z,5.63
2022-10-05T18:55:07.242Z,6.72
2022-10-05T18:57:56.336Z,7.47
2022-10-05T19:00:27.749Z,6.65
2022-10-05T19:03:04.949Z,5.32
2022-10-05T19:06:06.597Z,7.43
2022-10-05T19:08:58.313Z,7.15
2022-10-05T19:11:41.693Z,6.97
2022-10-05T19:14:18.455Z,9.82
2022-10-05T19:17:14.362Z,9.50
2022-10-05T19:20:09.394Z,6.22
2022-10-05T19:22:54.961Z,8.27
2022-10-05T19:25:47.725Z,7.28
2022-10-05T19:28:49.933Z,7.82
2022-10-05T19:32:15.799Z,11.65
2022-10-05T19:34:50.003Z,7.20
2022-10-05T19:37:44.623Z,7.15
2022-10-05T19:40:39.387Z,11.75
2022-10-05T19:43:37.296Z,11.32
2022-10-05T19:46:04.797Z,5.35
2022-10-05T19:48:44.912Z,7.57
2022-10-05T19:51:27.408Z,6.47
2022-10-05T19:53:57.205Z,9.07
2022-10-05T19:56:27.152Z,11.30
2022-10-05T20:01:26.647Z,12.38
2022-10-05T20:03:54.035Z,11.90
2022-10-05T20:06:22.898Z,8.48
2022-10-05T20:08:52.494Z,7.20
2022-10-05T20:11:27.443Z,8.10
2022-10-05T20:13:55.108Z,10.43
2022-10-05T20:16:49.919Z,31.20
2022-10-05T20:19:50.416Z,20.65
2022-10-05T20:22:37.623Z,10.60
2022-10-05T20:25:08.091Z,9.65
2022-10-05T20:27:41.616Z,9.32
2022-10-05T20:30:10.927Z,17.88
2022-10-05T20:32:38.615Z,14.13
2022-10-05T20:35:07.246Z,9.57
2022-10-05T20:37:33.977Z,32.20
2022-10-05T20:40:00.787Z,36.65
2022-10-05T20:42:27.529Z,33.30
2022-10-05T20:44:56.969Z,21.77
2022-10-05T20:47:24.611Z,11.93
2022-10-05T20:49:53.530Z,17.15
2022-10-05T20:52:20.996Z,35.72
2022-10-05T20:54:48.280Z,17.42
2022-10-05T20:57:15.038Z,16.05
2022-10-05T20:59:41.758Z,37.53
2022-10-05T21:02:08.487Z,33.20
2022-10-05T21:04:40.856Z,28.83
2022-10-05T21:07:08.520Z,28.67
2022-10-05T21:09:38.075Z,33.90
2022-10-05T21:12:04.896Z,31.70
2022-10-05T21:14:34.522Z,64.75
2022-10-05T21:17:02.248Z,64.10
2022-10-05T21:19:29.678Z,62.15
2022-10-05T21:21:59.490Z,82.55
2022-10-05T21:24:26.413Z,61.00
2022-10-05T21:26:57.162Z,40.55
2022-10-05T21:29:24.029Z,33.58
2022-10-05T21:31:51.253Z,27.40
2022-10-05T21:34:18.135Z,23.95
2022-10-05T21:36:45.075Z,37.78
2022-10-05T21:39:11.920Z,37.65
2022-10-05T21:41:38.657Z,21.83
2022-10-05T21:44:06.847Z,28.98
2022-10-05T21:46:36.358Z,25.42
2022-10-05T21:49:03.397Z,32.15
2022-10-05T21:51:30.107Z,20.85
2022-10-05T21:54:03.680Z,14.07
2022-10-05T21:56:36.482Z,30.52
2022-10-05T21:59:06.633Z,38.10
2022-10-05T22:01:36.006Z,23.38
2022-10-05T22:04:04.313Z,27.67
2022-10-05T22:06:31.272Z,40.83
2022-10-05T22:08:58.302Z,34.22
2022-10-05T22:11:25.662Z,25.27
2022-10-05T22:13:53.618Z,43.92
2022-10-05T22:16:23.820Z,35.20
2022-10-05T22:18:50.749Z,16.88
2022-10-05T22:21:17.612Z,9.98
2022-10-05T22:23:46.190Z,14.80
2022-10-05T22:26:16.745Z,9.55
2022-10-05T22:28:44.587Z,27.67
2022-10-05T22:31:12.884Z,22.75
2022-10-05T22:33:40.034Z,16.67
2022-10-05T22:36:08.010Z,14.63
2022-10-05T22:38:35.120Z,9.48
2022-10-05T22:41:01.859Z,8.35
2022-10-05T22:43:29.048Z,10.73
2022-10-05T22:45:56.746Z,8.93
2022-10-05T22:48:23.513Z,9.65
2022-10-05T22:50:50.262Z,10.70
2022-10-05T22:53:17.434Z,7.80
2022-10-05T22:55:44.155Z,13.55
2022-10-05T22:58:10.926Z,10.13
2022-10-05T23:03:34.438Z,10.63
2022-10-05T23:06:03.812Z,11.15
2022-10-05T23:08:32.623Z,7.18
2022-10-05T23:11:11.155Z,11.70
2022-10-05T23:13:38.115Z,7.90
2022-10-05T23:16:16.086Z,7.93
2022-10-05T23:18:43.282Z,8.07
2022-10-05T23:21:11.429Z,9.38
2022-10-05T23:23:40.643Z,10.45
2022-10-05T23:26:09.963Z,9.32
2022-10-05T23:28:38.510Z,10.23
2022-10-05T23:31:08.011Z,11.90
2022-10-05T23:33:35.507Z,14.60
2022-10-05T23:36:23.586Z,10.10
2022-10-05T23:38:50.324Z,59.10
2022-10-05T23:41:17.743Z,13.38
2022-10-05T23:43:44.491Z,13.38
2022-10-05T23:46:11.952Z,13.40
2022-10-05T23:48:39.726Z,20.42
2022-10-05T23:51:12.917Z,30.52
2022-10-05T23:53:39.653Z,37.53
2022-10-05T23:56:06.684Z,53.85
2022-10-05T23:58:33.596Z,15.25
